»·PEaware :: AAL422 KLAS-KLAX

AAL422 :: KLAS-KLAX

FLIGHT INFORMATION

Flight Status: Arrived
Operator:
American Airlines
More flights by this operator :: More flights under this callsign
Pilot: Dylan P. (22392)
Aircraft: AIRBUS A320
(A320)
More flights by this aircraft type
Origin: KLAS McCarran Intl
United States
Destination: KLAX Los Angeles Intl
United States
More flights between these airports :: More routes between these airports
Route: BOACH8 RIKII SHTNR ANJLL4
File this flight plan on PilotEdge
Remarks:
Altitude:
(Current/Filed)
32,000ft
Speed:
(Current/Filed)
500kts
Departed: 03-Dec-18 03:26 PM
Arrived: 03-Dec-18 04:09 PM
Distance/Time
Traveled:
205nm/0:43
Distance/Time
To Go:
Arrived

Flight Plot

Page will automatically refresh every two minutes.

Flight plan parsing failed; only flown route is shown


Map Options




Map Legend


Flown Route
Filed Route
Departure Airport
Arrival Airport
Navaid (VOR, NDB)
Fix

Horizontal Profiles

Position Reports

Time Latitude Longitude Heading Altitude Ground
Speed
03-Dec-18 14:56 36.079951 -115.135274 350 2190ft 0kts
03-Dec-18 14:57 36.079951 -115.135274 350 2190ft 0kts
03-Dec-18 14:58 36.079951 -115.135274 350 2190ft 0kts
03-Dec-18 14:59 36.079951 -115.135274 350 2190ft 0kts
03-Dec-18 15:00 36.079951 -115.135274 350 2190ft 0kts
03-Dec-18 15:01 36.079951 -115.135274 350 2190ft 0kts
03-Dec-18 15:02 36.079951 -115.135274 350 2190ft 0kts
03-Dec-18 15:03 36.079951 -115.135274 350 2190ft 0kts
03-Dec-18 15:04 36.079951 -115.135274 350 2190ft 0kts
03-Dec-18 15:05 36.079951 -115.135274 350 2190ft 0kts
03-Dec-18 15:06 36.079951 -115.135274 350 2190ft 0kts
03-Dec-18 15:07 36.079951 -115.135274 350 2190ft 0kts
03-Dec-18 15:08 36.079951 -115.135274 350 2190ft 0kts
03-Dec-18 15:09 36.079951 -115.135274 350 2190ft 0kts
03-Dec-18 15:10 36.079951 -115.135274 350 2190ft 0kts
03-Dec-18 15:15 36.079089 -115.135669 90 2190ft 0kts
03-Dec-18 15:16 36.079089 -115.135668 90 2190ft 0kts
03-Dec-18 15:17 36.079089 -115.135668 90 2190ft 0kts
03-Dec-18 15:18 36.079089 -115.135668 90 2190ft 0kts
03-Dec-18 15:19 36.079089 -115.135668 90 2190ft 0kts
03-Dec-18 15:20 36.079089 -115.135668 90 2190ft 0kts
03-Dec-18 15:21 36.078870 -115.135337 153 2190ft 9kts
03-Dec-18 15:22 36.078296 -115.129326 90 2190ft 20kts
03-Dec-18 15:23 36.078207 -115.122662 114 2190ft 19kts
03-Dec-18 15:24 36.077381 -115.121378 144 2190ft 3kts
03-Dec-18 15:25 36.076452 -115.134515 270 2198ft 138kts
03-Dec-18 15:26 36.077510 -115.199046 269 3757ft 235kts
03-Dec-18 15:27 36.043369 -115.269135 200 6406ft 277kts
03-Dec-18 15:28 35.974213 -115.300346 194 6995ft 277kts
03-Dec-18 15:29 35.896926 -115.310489 184 9142ft 288kts
03-Dec-18 15:30 35.814816 -115.310346 173 11346ft 331kts
03-Dec-18 15:31 35.714821 -115.298956 175 12818ft 380kts
03-Dec-18 15:32 35.610216 -115.297450 183 15367ft 381kts
03-Dec-18 15:33 35.503301 -115.306215 201 17303ft 389kts
03-Dec-18 15:34 35.408861 -115.372171 212 19107ft 396kts
03-Dec-18 15:35 35.313414 -115.441433 213 20738ft 405kts
03-Dec-18 15:36 35.215945 -115.511986 213 22234ft 414kts
03-Dec-18 15:37 35.118029 -115.587309 225 23559ft 418kts
03-Dec-18 15:38 35.037669 -115.689247 228 24838ft 423kts
03-Dec-18 15:39 34.956015 -115.793341 229 26067ft 429kts
03-Dec-18 15:40 34.874120 -115.897455 229 27183ft 434kts
03-Dec-18 15:41 34.790443 -116.003507 228 28261ft 436kts
03-Dec-18 15:42 34.707380 -116.109163 229 29586ft 431kts
03-Dec-18 15:43 34.625354 -116.213430 229 30874ft 426kts
03-Dec-18 15:44 34.543891 -116.316666 229 32002ft 423kts
03-Dec-18 15:45 34.463025 -116.418838 229 29963ft 426kts
03-Dec-18 15:46 34.394943 -116.530366 245 27827ft 407kts
03-Dec-18 15:47 34.345193 -116.651050 245 25832ft 392kts
03-Dec-18 15:48 34.299990 -116.762606 245 24341ft 370kts
03-Dec-18 15:49 34.255430 -116.873317 245 22250ft 365kts
03-Dec-18 15:50 34.212020 -116.982028 249 20281ft 356kts
03-Dec-18 15:51 34.181200 -117.093833 252 18310ft 348kts
03-Dec-18 15:52 34.151338 -117.203298 252 16389ft 340kts
03-Dec-18 15:53 34.122137 -117.309237 252 14585ft 331kts
03-Dec-18 15:54 34.094165 -117.413823 253 12663ft 326kts
03-Dec-18 15:55 34.067184 -117.515231 246 11178ft 310kts
03-Dec-18 15:56 34.033156 -117.609675 247 9499ft 304kts
03-Dec-18 15:57 34.004917 -117.702679 263 8159ft 286kts
03-Dec-18 15:58 33.996094 -117.793178 261 8036ft 271kts
03-Dec-18 15:59 33.987475 -117.882074 262 7055ft 265kts
03-Dec-18 16:00 33.978899 -117.969430 262 5888ft 260kts
03-Dec-18 16:01 33.971639 -118.054857 261 4723ft 248kts
03-Dec-18 16:02 33.963179 -118.132395 261 4019ft 218kts
03-Dec-18 16:03 33.955921 -118.202924 261 3132ft 199kts
03-Dec-18 16:04 33.949663 -118.263182 262 2102ft 162kts
03-Dec-18 16:05 33.944733 -118.310943 262 1329ft 140kts
03-Dec-18 16:06 33.940004 -118.357098 262 573ft 137kts
03-Dec-18 16:07 33.935619 -118.399516 263 136ft 72kts
03-Dec-18 16:08 33.936235 -118.403980 271 136ft 17kts
03-Dec-18 16:09 33.937973 -118.407896 81 136ft 15kts
03-Dec-18 16:10 33.940885 -118.407872 70 136ft 6kts
03-Dec-18 16:11 33.941063 -118.407299 69 136ft 0kts
03-Dec-18 16:12 33.941063 -118.407299 69 136ft 0kts

Navigation Log

Ident Type
Flight plan parsing failed, navigation log unavailable